createdAt,value
2019-03-01T00:02:47.461Z,8.77
2019-03-01T00:07:01.023Z,12.30
2019-03-01T00:11:14.675Z,9.63
2019-03-01T00:15:25.417Z,6.73
2019-03-01T00:19:45.263Z,9.13
2019-03-01T00:23:59.177Z,6.83
2019-03-01T00:28:29.983Z,7.97
2019-03-01T00:32:49.974Z,7.90
2019-03-01T00:37:17.449Z,9.17
2019-03-01T00:41:28.278Z,3.33
2019-03-01T00:45:33.169Z,4.73
2019-03-01T00:49:38.135Z,4.27
2019-03-01T00:53:43.039Z,7.13
2019-03-01T00:57:47.939Z,5.97
2019-03-01T01:01:52.834Z,4.87
2019-03-01T01:05:57.721Z,4.63
2019-03-01T01:10:02.617Z,5.33
2019-03-01T01:14:08.589Z,5.37
2019-03-01T01:18:13.505Z,7.67
2019-03-01T01:22:18.405Z,5.30
2019-03-01T01:26:23.286Z,6.50
2019-03-01T01:30:28.215Z,5.30
2019-03-01T01:34:33.078Z,6.13
2019-03-01T01:38:37.990Z,7.80
2019-03-01T01:42:42.878Z,8.37
2019-03-01T01:46:47.759Z,9.40
2019-03-01T01:50:52.648Z,8.10
2019-03-01T01:54:57.540Z,9.37
2019-03-01T01:59:02.425Z,5.80
2019-03-01T02:03:07.392Z,7.70
2019-03-01T02:07:12.271Z,12.90
2019-03-01T02:11:17.833Z,10.97
2019-03-01T02:15:22.726Z,7.33
2019-03-01T02:19:28.587Z,8.47
2019-03-01T02:23:33.475Z,6.50
2019-03-01T02:27:38.359Z,5.33
2019-03-01T02:31:46.438Z,7.03
2019-03-01T02:35:51.405Z,6.80
2019-03-01T02:39:56.286Z,5.70
2019-03-01T02:44:01.176Z,7.33
2019-03-01T02:48:06.074Z,5.13
2019-03-01T02:52:10.974Z,9.77
2019-03-01T02:56:15.875Z,7.77
2019-03-01T03:00:23.807Z,5.47
2019-03-01T03:04:28.702Z,5.00
2019-03-01T03:08:33.998Z,6.67
2019-03-01T03:12:38.897Z,5.53
2019-03-01T03:16:43.808Z,8.70
2019-03-01T03:20:48.709Z,4.97
2019-03-01T03:24:53.606Z,6.67
2019-03-01T03:28:58.482Z,7.90
2019-03-01T03:33:04.423Z,5.70
2019-03-01T03:37:09.326Z,3.97
2019-03-01T03:41:14.206Z,6.57
2019-03-01T03:45:19.270Z,5.53
2019-03-01T03:49:24.150Z,3.50
2019-03-01T03:53:29.041Z,4.83
2019-03-01T03:57:33.938Z,6.40
2019-03-01T04:01:38.827Z,4.53
2019-03-01T04:05:43.737Z,4.87
2019-03-01T04:09:48.611Z,7.13
2019-03-01T04:13:53.501Z,4.60
2019-03-01T04:17:58.393Z,4.13
2019-03-01T04:22:03.288Z,4.63
2019-03-01T04:26:08.176Z,3.67
2019-03-01T04:30:17.661Z,3.33
2019-03-01T04:34:22.570Z,3.60
2019-03-01T04:38:27.440Z,5.70
2019-03-01T04:42:32.328Z,5.10
2019-03-01T04:46:37.219Z,5.00
2019-03-01T04:50:42.096Z,5.53
2019-03-01T04:54:46.988Z,4.67
2019-03-01T04:58:51.877Z,6.67
2019-03-01T05:02:56.771Z,4.37
2019-03-01T05:07:01.655Z,8.43
2019-03-01T05:11:06.535Z,3.73
2019-03-01T05:15:20.296Z,7.33
2019-03-01T05:19:25.187Z,4.07
2019-03-01T05:23:30.079Z,4.40
2019-03-01T05:27:34.975Z,3.33
2019-03-01T05:31:39.848Z,5.27
2019-03-01T05:35:44.741Z,3.63
2019-03-01T05:39:49.648Z,3.97
2019-03-01T05:43:54.540Z,2.70
2019-03-01T05:47:59.434Z,4.23
2019-03-01T05:52:04.321Z,4.07
2019-03-01T05:56:09.208Z,3.63
2019-03-01T06:00:14.109Z,3.20
2019-03-01T06:04:24.550Z,4.77
2019-03-01T06:08:47.563Z,4.90
2019-03-01T06:13:04.055Z,5.23
2019-03-01T06:17:43.652Z,6.47
2019-03-01T06:21:57.367Z,5.63
2019-03-01T06:26:26.411Z,5.27
2019-03-01T06:30:55.024Z,3.00
2019-03-01T06:35:08.279Z,5.63
2019-03-01T06:39:36.918Z,2.17
2019-03-01T06:43:56.548Z,2.57
2019-03-01T06:48:01.443Z,3.27
2019-03-01T06:52:06.326Z,4.47
2019-03-01T06:56:11.390Z,3.30
2019-03-01T07:00:16.292Z,4.83
2019-03-01T07:04:21.167Z,3.33
2019-03-01T07:08:26.065Z,3.13
2019-03-01T07:12:30.961Z,4.37
2019-03-01T07:16:36.124Z,3.00
2019-03-01T07:20:41.023Z,4.73
2019-03-01T07:24:45.913Z,4.27
2019-03-01T07:28:50.807Z,4.43
2019-03-01T07:32:55.724Z,6.83
2019-03-01T07:37:00.629Z,3.50
2019-03-01T07:41:05.533Z,5.57
2019-03-01T07:45:12.802Z,6.13
2019-03-01T07:49:17.701Z,3.80
2019-03-01T07:53:22.609Z,5.53
2019-03-01T07:57:28.477Z,4.73
2019-03-01T08:01:33.382Z,3.53
2019-03-01T08:05:39.370Z,2.57
2019-03-01T08:09:45.698Z,4.90
2019-03-01T08:13:53.123Z,3.70
2019-03-01T08:17:57.241Z,4.00
2019-03-01T08:22:02.211Z,3.63
2019-03-01T08:26:07.104Z,1.77
2019-03-01T08:30:14.445Z,4.87
2019-03-01T08:34:20.413Z,2.03
2019-03-01T08:38:28.492Z,4.47
2019-03-01T08:42:32.629Z,5.47
2019-03-01T08:46:42.120Z,4.77
2019-03-01T08:50:45.137Z,4.23
2019-03-01T08:54:50.173Z,6.00
2019-03-01T08:58:55.037Z,4.83
2019-03-01T09:03:03.801Z,2.53
2019-03-01T09:07:08.697Z,3.73
2019-03-01T09:11:14.672Z,2.57
2019-03-01T09:15:19.564Z,2.70
2019-03-01T09:19:25.240Z,3.40
2019-03-01T09:23:31.047Z,14.23
2019-03-01T09:27:35.957Z,27.30
2019-03-01T09:31:40.860Z,6.37
2019-03-01T09:35:56.714Z,6.20
2019-03-01T09:40:05.425Z,5.80
2019-03-01T09:44:08.299Z,8.33
2019-03-01T09:48:13.225Z,10.33
2019-03-01T09:52:20.395Z,10.60
2019-03-01T09:56:24.735Z,9.07
2019-03-01T10:00:34.361Z,8.33
2019-03-01T10:04:39.266Z,8.00
2019-03-01T10:08:44.172Z,5.90
2019-03-01T10:12:50.166Z,6.80
2019-03-01T10:16:55.068Z,6.20
2019-03-01T10:20:59.978Z,5.80
2019-03-01T10:25:07.515Z,7.20
2019-03-01T10:29:12.441Z,4.80
2019-03-01T10:33:17.323Z,7.10
2019-03-01T10:37:22.223Z,5.83
2019-03-01T10:41:27.125Z,6.40
2019-03-01T10:45:32.396Z,6.50
2019-03-01T10:49:37.295Z,6.17
2019-03-01T10:53:42.215Z,7.27
2019-03-01T10:57:47.245Z,7.10
2019-03-01T11:01:53.119Z,7.30
2019-03-01T11:05:58.032Z,10.73
2019-03-01T11:10:03.595Z,6.33
2019-03-01T11:14:08.494Z,5.73
2019-03-01T11:18:13.399Z,7.27
2019-03-01T11:22:18.314Z,10.90
2019-03-01T11:26:23.216Z,7.17
2019-03-01T11:30:30.816Z,9.10
2019-03-01T11:34:36.323Z,8.73
2019-03-01T11:38:41.202Z,9.00
2019-03-01T11:42:46.125Z,9.27
2019-03-01T11:46:51.026Z,8.17
2019-03-01T11:50:55.931Z,12.07
2019-03-01T11:55:00.843Z,13.70
2019-03-01T11:59:05.741Z,13.40
2019-03-01T12:03:10.654Z,14.07
2019-03-01T12:07:15.558Z,13.87
2019-03-01T12:11:20.468Z,13.53
2019-03-01T12:15:25.380Z,18.63
2019-03-01T12:19:30.292Z,24.93
2019-03-01T12:23:35.204Z,27.53
2019-03-01T12:27:40.166Z,31.07
2019-03-01T12:31:45.033Z,30.37
2019-03-01T12:35:49.940Z,35.73
2019-03-01T12:39:54.856Z,41.77
2019-03-01T12:43:59.772Z,48.67
2019-03-01T12:48:04.683Z,56.57
2019-03-01T12:52:09.588Z,65.57
2019-03-01T12:56:15.471Z,59.63
2019-03-01T13:00:26.054Z,65.57
2019-03-01T13:04:30.971Z,74.47
2019-03-01T13:08:36.200Z,76.13
2019-03-01T13:12:41.103Z,82.00
2019-03-01T13:16:46.052Z,77.40
2019-03-01T13:20:50.952Z,75.33
2019-03-01T13:24:55.876Z,79.27
2019-03-01T13:29:00.810Z,73.43
2019-03-01T13:33:05.715Z,80.00
2019-03-01T13:37:14.430Z,86.67
2019-03-01T13:41:17.263Z,92.20
2019-03-01T13:45:26.079Z,92.50
2019-03-01T13:49:31.378Z,94.27
2019-03-01T13:53:37.271Z,95.80
2019-03-01T13:57:42.269Z,94.53
2019-03-01T14:01:47.790Z,101.20
2019-03-01T14:05:54.847Z,94.53
2019-03-01T14:10:00.820Z,92.77
2019-03-01T14:14:07.478Z,83.07
2019-03-01T14:18:12.384Z,80.43
2019-03-01T14:22:17.286Z,80.30
2019-03-01T14:26:23.268Z,80.00
2019-03-01T14:30:30.026Z,78.10
2019-03-01T14:34:35.991Z,77.40
2019-03-01T14:38:40.973Z,67.87
2019-03-01T14:42:47.565Z,74.63
2019-03-01T14:46:52.924Z,70.27
2019-03-01T14:50:59.206Z,64.60
2019-03-01T14:55:05.580Z,64.17
2019-03-01T14:59:19.739Z,69.47
2019-03-01T15:03:33.042Z,62.67
2019-03-01T15:07:37.943Z,60.63
2019-03-01T15:11:44.338Z,56.17
2019-03-01T15:15:49.530Z,57.73
2019-03-01T15:19:55.516Z,58.67
2019-03-01T15:24:01.454Z,58.77
2019-03-01T15:28:06.518Z,50.17
2019-03-01T15:32:12.534Z,59.23
2019-03-01T15:36:18.969Z,61.67
2019-03-01T15:40:24.113Z,61.60
2019-03-01T15:44:29.022Z,64.67
2019-03-01T15:48:34.409Z,53.50
2019-03-01T15:52:40.527Z,59.97
2019-03-01T15:56:45.438Z,65.97
2019-03-01T16:00:50.332Z,66.20
2019-03-01T16:04:55.245Z,59.27
2019-03-01T16:09:00.157Z,65.47
2019-03-01T16:13:08.416Z,68.57
2019-03-01T16:17:11.668Z,60.30
2019-03-01T16:21:16.567Z,68.30
2019-03-01T16:25:21.626Z,63.67
2019-03-01T16:29:26.455Z,65.47
2019-03-01T16:33:31.370Z,63.17
2019-03-01T16:37:37.714Z,70.53
2019-03-01T16:41:43.687Z,69.40
2019-03-01T16:45:48.806Z,62.93
2019-03-01T16:49:53.717Z,61.23
2019-03-01T16:53:58.622Z,63.20
2019-03-01T16:58:07.359Z,49.77
2019-03-01T17:02:11.204Z,49.57
2019-03-01T17:06:16.101Z,60.97
2019-03-01T17:10:22.544Z,49.70
2019-03-01T17:14:27.469Z,53.70
2019-03-01T17:18:33.346Z,47.00
2019-03-01T17:22:38.237Z,43.70
2019-03-01T17:26:43.142Z,41.10
2019-03-01T17:30:50.836Z,41.63
2019-03-01T17:34:54.654Z,44.87
2019-03-01T17:38:59.585Z,44.43
2019-03-01T17:43:04.486Z,46.93
2019-03-01T17:47:10.686Z,42.60
2019-03-01T17:51:18.280Z,41.13
2019-03-01T17:55:24.450Z,49.33
2019-03-01T17:59:29.343Z,43.93
2019-03-01T18:03:34.238Z,40.63
2019-03-01T18:07:39.204Z,45.90
2019-03-01T18:11:44.539Z,35.90
2019-03-01T18:15:50.304Z,37.60
2019-03-01T18:19:55.210Z,37.43
2019-03-01T18:24:00.104Z,31.63
2019-03-01T18:28:05.025Z,32.60
2019-03-01T18:32:10.886Z,29.53
2019-03-01T18:36:15.907Z,23.43
2019-03-01T18:40:20.800Z,21.50
2019-03-01T18:44:26.109Z,23.57
2019-03-01T18:48:33.554Z,19.00
2019-03-01T18:52:38.661Z,24.20
2019-03-01T18:56:43.556Z,21.27
2019-03-01T19:00:50.956Z,24.07
2019-03-01T19:04:56.161Z,28.03
2019-03-01T19:09:01.058Z,23.00
2019-03-01T19:13:07.567Z,25.33
2019-03-01T19:17:12.462Z,22.87
2019-03-01T19:21:18.210Z,23.63
2019-03-01T19:25:25.290Z,29.40
2019-03-01T19:29:29.842Z,34.17
2019-03-01T19:33:37.754Z,46.63
2019-03-01T19:37:41.353Z,41.97
2019-03-01T19:41:46.263Z,36.77
2019-03-01T19:45:51.154Z,38.93
2019-03-01T19:49:56.065Z,40.03
2019-03-01T19:54:02.051Z,42.13
2019-03-01T19:58:08.808Z,42.07
2019-03-01T20:02:14.210Z,42.43
2019-03-01T20:06:19.114Z,37.17
2019-03-01T20:10:24.487Z,32.00
2019-03-01T20:14:30.324Z,34.40
2019-03-01T20:18:36.005Z,34.37
2019-03-01T20:22:40.905Z,28.97
2019-03-01T20:26:45.799Z,32.57
2019-03-01T20:30:50.700Z,36.83
2019-03-01T20:34:55.609Z,32.53
2019-03-01T20:39:00.516Z,35.80
2019-03-01T20:43:07.253Z,35.87
2019-03-01T20:47:12.089Z,41.20
2019-03-01T20:51:16.994Z,32.17
2019-03-01T20:55:23.849Z,34.27
2019-03-01T20:59:28.573Z,35.27
2019-03-01T21:03:33.487Z,32.50
2019-03-01T21:07:38.751Z,33.80
2019-03-01T21:11:43.656Z,40.73
2019-03-01T21:15:48.560Z,37.37
2019-03-01T21:19:53.461Z,35.63
2019-03-01T21:23:58.378Z,38.47
2019-03-01T21:28:03.266Z,36.30
2019-03-01T21:32:08.186Z,40.17
2019-03-01T21:36:13.106Z,37.37
2019-03-01T21:40:18.010Z,39.27
2019-03-01T21:44:22.920Z,41.90
2019-03-01T21:48:27.838Z,43.70
2019-03-01T21:52:33.821Z,38.90
2019-03-01T21:56:41.038Z,43.17
2019-03-01T22:00:45.345Z,42.33
2019-03-01T22:04:50.269Z,46.80
2019-03-01T22:08:55.165Z,43.20
2019-03-01T22:13:00.515Z,41.00
2019-03-01T22:17:06.262Z,45.33
2019-03-01T22:21:11.164Z,41.77
2019-03-01T22:25:16.242Z,43.37
2019-03-01T22:29:21.129Z,40.80
2019-03-01T22:33:26.037Z,41.57
2019-03-01T22:37:30.945Z,39.03
2019-03-01T22:41:39.345Z,39.63
2019-03-01T22:45:45.489Z,46.17
2019-03-01T22:49:49.037Z,42.03
2019-03-01T22:53:53.949Z,44.30
2019-03-01T22:58:00.881Z,45.00
2019-03-01T23:02:08.206Z,45.77
2019-03-01T23:06:14.648Z,41.80
2019-03-01T23:10:21.541Z,43.03
2019-03-01T23:14:27.320Z,48.73
2019-03-01T23:18:33.105Z,43.33
2019-03-01T23:22:38.014Z,44.77
2019-03-01T23:26:42.940Z,41.80
2019-03-01T23:30:47.841Z,41.60
2019-03-01T23:34:52.747Z,42.70
2019-03-01T23:38:57.652Z,43.50
2019-03-01T23:43:02.562Z,45.87
2019-03-01T23:47:07.477Z,42.60
2019-03-01T23:51:12.372Z,44.23
2019-03-01T23:55:18.981Z,37.97
2019-03-01T23:59:26.654Z,36.07
